sensor_id;sensor_type;location;lat;lon;timestamp;P1;durP1;ratioP1;P2;durP2;ratioP2
6197;SDS011;3132;42.622;23.328;2022-09-21T00:00:39;10.40;;;9.90;;
6197;SDS011;3132;42.622;23.328;2022-09-21T00:03:04;9.93;;;9.53;;
6197;SDS011;3132;42.622;23.328;2022-09-21T00:05:31;10.63;;;10.13;;
6197;SDS011;3132;42.622;23.328;2022-09-21T00:08:01;10.57;;;10.07;;
6197;SDS011;3132;42.622;23.328;2022-09-21T00:10:28;10.20;;;9.70;;
6197;SDS011;3132;42.622;23.328;2022-09-21T00:12:54;9.90;;;9.50;;
6197;SDS011;3132;42.622;23.328;2022-09-21T00:15:21;10.87;;;10.37;;
6197;SDS011;3132;42.622;23.328;2022-09-21T00:17:47;10.60;;;10.10;;
6197;SDS011;3132;42.622;23.328;2022-09-21T00:20:16;10.40;;;9.90;;
6197;SDS011;3132;42.622;23.328;2022-09-21T00:22:41;10.20;;;9.63;;
6197;SDS011;3132;42.622;23.328;2022-09-21T00:25:07;10.67;;;10.17;;
6197;SDS011;3132;42.622;23.328;2022-09-21T00:27:33;10.23;;;9.83;;
6197;SDS011;3132;42.622;23.328;2022-09-21T00:30:00;9.37;;;9.03;;
6197;SDS011;3132;42.622;23.328;2022-09-21T00:32:28;10.73;;;10.23;;
6197;SDS011;3132;42.622;23.328;2022-09-21T00:34:55;10.77;;;10.27;;
6197;SDS011;3132;42.622;23.328;2022-09-21T00:37:24;10.47;;;10.07;;
6197;SDS011;3132;42.622;23.328;2022-09-21T00:39:50;9.67;;;9.27;;
6197;SDS011;3132;42.622;23.328;2022-09-21T00:42:17;10.07;;;9.57;;
6197;SDS011;3132;42.622;23.328;2022-09-21T00:44:44;10.93;;;10.27;;
6197;SDS011;3132;42.622;23.328;2022-09-21T00:47:14;10.67;;;10.17;;
6197;SDS011;3132;42.622;23.328;2022-09-21T00:49:44;10.07;;;9.63;;
6197;SDS011;3132;42.622;23.328;2022-09-21T00:52:14;10.70;;;10.20;;
6197;SDS011;3132;42.622;23.328;2022-09-21T00:54:48;10.00;;;9.60;;
6197;SDS011;3132;42.622;23.328;2022-09-21T00:57:16;9.57;;;9.17;;
6197;SDS011;3132;42.622;23.328;2022-09-21T00:59:45;10.60;;;10.10;;
6197;SDS011;3132;42.622;23.328;2022-09-21T01:02:14;10.20;;;9.80;;
6197;SDS011;3132;42.622;23.328;2022-09-21T01:04:41;10.80;;;10.20;;
6197;SDS011;3132;42.622;23.328;2022-09-21T01:07:07;11.43;;;10.93;;
6197;SDS011;3132;42.622;23.328;2022-09-21T01:09:37;10.67;;;10.17;;
6197;SDS011;3132;42.622;23.328;2022-09-21T01:26:22;11.17;;;10.50;;
6197;SDS011;3132;42.622;23.328;2022-09-21T01:31:51;10.27;;;9.73;;
6197;SDS011;3132;42.622;23.328;2022-09-21T01:34:32;11.63;;;11.03;;
6197;SDS011;3132;42.622;23.328;2022-09-21T01:37:07;9.50;;;9.10;;
6197;SDS011;3132;42.622;23.328;2022-09-21T01:39:37;11.13;;;10.53;;
6197;SDS011;3132;42.622;23.328;2022-09-21T01:42:07;10.63;;;10.00;;
6197;SDS011;3132;42.622;23.328;2022-09-21T01:44:34;11.23;;;10.53;;
6197;SDS011;3132;42.622;23.328;2022-09-21T01:47:04;9.60;;;9.10;;
6197;SDS011;3132;42.622;23.328;2022-09-21T01:49:36;10.70;;;10.10;;
6197;SDS011;3132;42.622;23.328;2022-09-21T01:52:30;10.03;;;9.53;;
6197;SDS011;3132;42.622;23.328;2022-09-21T01:55:00;10.00;;;9.30;;
6197;SDS011;3132;42.622;23.328;2022-09-21T01:57:45;9.77;;;9.17;;
6197;SDS011;3132;42.622;23.328;2022-09-21T02:00:12;10.40;;;9.90;;
6197;SDS011;3132;42.622;23.328;2022-09-21T02:02:45;10.93;;;10.23;;
6197;SDS011;3132;42.622;23.328;2022-09-21T02:05:17;10.37;;;9.77;;
6197;SDS011;3132;42.622;23.328;2022-09-21T02:07:44;10.17;;;9.63;;
6197;SDS011;3132;42.622;23.328;2022-09-21T02:10:13;11.50;;;10.77;;
6197;SDS011;3132;42.622;23.328;2022-09-21T02:12:44;11.50;;;10.80;;
6197;SDS011;3132;42.622;23.328;2022-09-21T02:15:10;11.80;;;10.97;;
6197;SDS011;3132;42.622;23.328;2022-09-21T02:17:46;12.27;;;11.07;;
6197;SDS011;3132;42.622;23.328;2022-09-21T02:20:27;10.30;;;9.70;;
6197;SDS011;3132;42.622;23.328;2022-09-21T02:23:10;10.67;;;10.07;;
6197;SDS011;3132;42.622;23.328;2022-09-21T02:26:02;10.87;;;10.27;;
6197;SDS011;3132;42.622;23.328;2022-09-21T02:31:30;12.20;;;11.57;;
6197;SDS011;3132;42.622;23.328;2022-09-21T02:36:53;12.97;;;12.07;;
6197;SDS011;3132;42.622;23.328;2022-09-21T02:39:31;11.73;;;10.93;;
6197;SDS011;3132;42.622;23.328;2022-09-21T02:42:04;12.23;;;11.47;;
6197;SDS011;3132;42.622;23.328;2022-09-21T02:44:46;12.10;;;11.40;;
6197;SDS011;3132;42.622;23.328;2022-09-21T02:47:33;11.53;;;10.83;;
6197;SDS011;3132;42.622;23.328;2022-09-21T02:50:05;12.27;;;11.50;;
6197;SDS011;3132;42.622;23.328;2022-09-21T02:52:37;11.90;;;11.10;;
6197;SDS011;3132;42.622;23.328;2022-09-21T02:55:07;11.57;;;10.73;;
6197;SDS011;3132;42.622;23.328;2022-09-21T02:57:33;11.93;;;11.23;;
6197;SDS011;3132;42.622;23.328;2022-09-21T03:00:02;12.37;;;11.63;;
6197;SDS011;3132;42.622;23.328;2022-09-21T03:02:39;12.70;;;11.80;;
6197;SDS011;3132;42.622;23.328;2022-09-21T03:05:07;13.17;;;11.97;;
6197;SDS011;3132;42.622;23.328;2022-09-21T03:07:33;13.03;;;12.23;;
6197;SDS011;3132;42.622;23.328;2022-09-21T03:09:58;12.57;;;11.47;;
6197;SDS011;3132;42.622;23.328;2022-09-21T03:12:24;12.53;;;11.60;;
6197;SDS011;3132;42.622;23.328;2022-09-21T03:14:50;12.63;;;11.63;;
6197;SDS011;3132;42.622;23.328;2022-09-21T03:17:17;11.30;;;10.60;;
6197;SDS011;3132;42.622;23.328;2022-09-21T03:19:42;11.30;;;10.63;;
6197;SDS011;3132;42.622;23.328;2022-09-21T03:22:08;12.23;;;11.40;;
6197;SDS011;3132;42.622;23.328;2022-09-21T03:24:33;11.00;;;10.03;;
6197;SDS011;3132;42.622;23.328;2022-09-21T03:27:14;11.50;;;10.80;;
6197;SDS011;3132;42.622;23.328;2022-09-21T03:29:41;12.13;;;11.53;;
6197;SDS011;3132;42.622;23.328;2022-09-21T03:32:06;10.80;;;10.20;;
6197;SDS011;3132;42.622;23.328;2022-09-21T03:34:32;9.33;;;8.93;;
6197;SDS011;3132;42.622;23.328;2022-09-21T03:36:59;11.27;;;10.57;;
6197;SDS011;3132;42.622;23.328;2022-09-21T03:39:25;11.03;;;10.43;;
6197;SDS011;3132;42.622;23.328;2022-09-21T03:41:50;10.90;;;10.40;;
6197;SDS011;3132;42.622;23.328;2022-09-21T03:44:16;10.47;;;9.67;;
6197;SDS011;3132;42.622;23.328;2022-09-21T03:46:42;10.47;;;9.70;;
6197;SDS011;3132;42.622;23.328;2022-09-21T03:49:08;11.00;;;10.40;;
6197;SDS011;3132;42.622;23.328;2022-09-21T03:51:33;10.93;;;10.43;;
6197;SDS011;3132;42.622;23.328;2022-09-21T03:53:58;10.93;;;10.43;;
6197;SDS011;3132;42.622;23.328;2022-09-21T03:56:24;10.03;;;9.53;;
6197;SDS011;3132;42.622;23.328;2022-09-21T03:58:49;12.70;;;12.03;;
6197;SDS011;3132;42.622;23.328;2022-09-21T04:01:15;11.53;;;10.93;;
6197;SDS011;3132;42.622;23.328;2022-09-21T04:03:40;10.20;;;9.60;;
6197;SDS011;3132;42.622;23.328;2022-09-21T04:06:09;11.80;;;11.10;;
6197;SDS011;3132;42.622;23.328;2022-09-21T04:08:36;11.10;;;10.60;;
6197;SDS011;3132;42.622;23.328;2022-09-21T04:11:07;9.63;;;9.13;;
6197;SDS011;3132;42.622;23.328;2022-09-21T04:13:33;10.63;;;9.83;;
6197;SDS011;3132;42.622;23.328;2022-09-21T04:15:59;10.53;;;9.93;;
6197;SDS011;3132;42.622;23.328;2022-09-21T04:18:25;10.37;;;9.83;;
6197;SDS011;3132;42.622;23.328;2022-09-21T04:20:50;9.70;;;9.20;;
6197;SDS011;3132;42.622;23.328;2022-09-21T04:23:15;11.30;;;10.37;;
6197;SDS011;3132;42.622;23.328;2022-09-21T04:25:42;9.97;;;9.57;;
6197;SDS011;3132;42.622;23.328;2022-09-21T04:28:07;10.20;;;9.80;;
6197;SDS011;3132;42.622;23.328;2022-09-21T04:30:33;10.30;;;9.60;;
6197;SDS011;3132;42.622;23.328;2022-09-21T04:32:59;10.53;;;9.93;;
6197;SDS011;3132;42.622;23.328;2022-09-21T04:35:24;10.10;;;9.70;;
6197;SDS011;3132;42.622;23.328;2022-09-21T04:37:53;10.47;;;9.90;;
6197;SDS011;3132;42.622;23.328;2022-09-21T04:40:20;10.23;;;9.83;;
6197;SDS011;3132;42.622;23.328;2022-09-21T04:42:49;9.43;;;9.03;;
6197;SDS011;3132;42.622;23.328;2022-09-21T04:45:16;8.93;;;8.63;;
6197;SDS011;3132;42.622;23.328;2022-09-21T04:47:41;9.27;;;8.87;;
6197;SDS011;3132;42.622;23.328;2022-09-21T04:50:07;8.67;;;8.37;;
6197;SDS011;3132;42.622;23.328;2022-09-21T04:52:33;8.50;;;8.20;;
6197;SDS011;3132;42.622;23.328;2022-09-21T04:54:59;10.47;;;10.07;;
6197;SDS011;3132;42.622;23.328;2022-09-21T04:57:24;9.13;;;8.80;;
6197;SDS011;3132;42.622;23.328;2022-09-21T04:59:49;8.93;;;8.53;;
6197;SDS011;3132;42.622;23.328;2022-09-21T05:02:15;8.47;;;8.17;;
6197;SDS011;3132;42.622;23.328;2022-09-21T05:04:40;9.03;;;8.73;;
6197;SDS011;3132;42.622;23.328;2022-09-21T05:07:05;9.40;;;9.00;;
6197;SDS011;3132;42.622;23.328;2022-09-21T05:09:31;8.57;;;8.10;;
6197;SDS011;3132;42.622;23.328;2022-09-21T05:12:15;8.47;;;8.17;;
6197;SDS011;3132;42.622;23.328;2022-09-21T05:14:40;8.33;;;7.93;;
6197;SDS011;3132;42.622;23.328;2022-09-21T05:17:08;9.20;;;8.90;;
6197;SDS011;3132;42.622;23.328;2022-09-21T05:19:33;8.17;;;7.87;;
6197;SDS011;3132;42.622;23.328;2022-09-21T05:21:59;9.43;;;9.03;;
6197;SDS011;3132;42.622;23.328;2022-09-21T05:24:24;11.30;;;10.70;;
6197;SDS011;3132;42.622;23.328;2022-09-21T05:26:49;11.47;;;10.77;;
6197;SDS011;3132;42.622;23.328;2022-09-21T05:29:15;10.73;;;10.13;;
6197;SDS011;3132;42.622;23.328;2022-09-21T05:31:47;11.97;;;10.97;;
6197;SDS011;3132;42.622;23.328;2022-09-21T05:35:22;13.07;;;12.17;;
6197;SDS011;3132;42.622;23.328;2022-09-21T05:40:21;11.60;;;10.90;;
6197;SDS011;3132;42.622;23.328;2022-09-21T05:42:46;12.37;;;11.30;;
6197;SDS011;3132;42.622;23.328;2022-09-21T05:45:13;11.83;;;10.93;;
6197;SDS011;3132;42.622;23.328;2022-09-21T05:50:19;10.80;;;9.90;;
6197;SDS011;3132;42.622;23.328;2022-09-21T05:52:58;9.90;;;9.40;;
6197;SDS011;3132;42.622;23.328;2022-09-21T06:00:56;10.97;;;10.27;;
6197;SDS011;3132;42.622;23.328;2022-09-21T06:03:34;10.90;;;10.30;;
6197;SDS011;3132;42.622;23.328;2022-09-21T06:06:00;8.53;;;8.13;;
6197;SDS011;3132;42.622;23.328;2022-09-21T06:08:26;8.87;;;8.57;;
6197;SDS011;3132;42.622;23.328;2022-09-21T06:10:52;8.30;;;7.90;;
6197;SDS011;3132;42.622;23.328;2022-09-21T06:13:18;8.63;;;8.33;;
6197;SDS011;3132;42.622;23.328;2022-09-21T06:15:44;8.83;;;8.53;;
6197;SDS011;3132;42.622;23.328;2022-09-21T06:18:10;8.40;;;8.10;;
6197;SDS011;3132;42.622;23.328;2022-09-21T06:20:35;9.00;;;8.60;;
6197;SDS011;3132;42.622;23.328;2022-09-21T06:23:04;8.20;;;7.80;;
6197;SDS011;3132;42.622;23.328;2022-09-21T06:25:35;8.07;;;7.83;;
6197;SDS011;3132;42.622;23.328;2022-09-21T06:28:03;8.93;;;8.63;;
6197;SDS011;3132;42.622;23.328;2022-09-21T06:30:31;9.03;;;8.67;;
6197;SDS011;3132;42.622;23.328;2022-09-21T06:32:59;8.77;;;8.37;;
6197;SDS011;3132;42.622;23.328;2022-09-21T06:35:26;8.00;;;7.80;;
6197;SDS011;3132;42.622;23.328;2022-09-21T06:37:55;8.80;;;8.50;;
6197;SDS011;3132;42.622;23.328;2022-09-21T06:40:22;8.40;;;7.90;;
6197;SDS011;3132;42.622;23.328;2022-09-21T06:42:47;8.13;;;7.53;;
6197;SDS011;3132;42.622;23.328;2022-09-21T06:45:12;7.37;;;7.17;;
6197;SDS011;3132;42.622;23.328;2022-09-21T06:47:38;8.10;;;7.80;;
6197;SDS011;3132;42.622;23.328;2022-09-21T06:50:03;9.23;;;8.93;;
6197;SDS011;3132;42.622;23.328;2022-09-21T06:52:29;8.10;;;7.80;;
6197;SDS011;3132;42.622;23.328;2022-09-21T06:54:54;8.90;;;8.50;;
6197;SDS011;3132;42.622;23.328;2022-09-21T06:57:19;7.73;;;7.43;;
6197;SDS011;3132;42.622;23.328;2022-09-21T06:59:45;8.53;;;8.23;;
6197;SDS011;3132;42.622;23.328;2022-09-21T07:02:11;8.67;;;8.37;;
6197;SDS011;3132;42.622;23.328;2022-09-21T07:04:36;7.83;;;7.53;;
6197;SDS011;3132;42.622;23.328;2022-09-21T07:07:02;9.03;;;8.50;;
6197;SDS011;3132;42.622;23.328;2022-09-21T07:09:27;8.50;;;8.17;;
6197;SDS011;3132;42.622;23.328;2022-09-21T07:11:52;9.33;;;8.80;;
6197;SDS011;3132;42.622;23.328;2022-09-21T07:14:18;8.83;;;8.53;;
6197;SDS011;3132;42.622;23.328;2022-09-21T07:16:46;8.10;;;7.70;;
6197;SDS011;3132;42.622;23.328;2022-09-21T07:19:11;9.43;;;9.03;;
6197;SDS011;3132;42.622;23.328;2022-09-21T07:21:37;8.57;;;8.27;;
6197;SDS011;3132;42.622;23.328;2022-09-21T07:24:03;9.20;;;8.80;;
6197;SDS011;3132;42.622;23.328;2022-09-21T07:26:28;8.23;;;7.93;;
6197;SDS011;3132;42.622;23.328;2022-09-21T07:28:54;8.77;;;8.37;;
6197;SDS011;3132;42.622;23.328;2022-09-21T07:31:19;8.77;;;8.47;;
6197;SDS011;3132;42.622;23.328;2022-09-21T07:33:45;9.30;;;8.90;;
6197;SDS011;3132;42.622;23.328;2022-09-21T07:36:13;8.87;;;8.47;;
6197;SDS011;3132;42.622;23.328;2022-09-21T07:38:40;8.87;;;8.47;;
6197;SDS011;3132;42.622;23.328;2022-09-21T07:41:08;9.57;;;9.07;;
6197;SDS011;3132;42.622;23.328;2022-09-21T07:43:35;9.03;;;8.63;;
6197;SDS011;3132;42.622;23.328;2022-09-21T07:46:03;9.57;;;8.97;;
6197;SDS011;3132;42.622;23.328;2022-09-21T07:48:29;8.53;;;8.23;;
6197;SDS011;3132;42.622;23.328;2022-09-21T07:50:59;8.90;;;8.53;;
6197;SDS011;3132;42.622;23.328;2022-09-21T07:53:28;9.23;;;8.83;;
6197;SDS011;3132;42.622;23.328;2022-09-21T07:55:59;9.60;;;9.20;;
6197;SDS011;3132;42.622;23.328;2022-09-21T07:58:28;9.90;;;9.50;;
6197;SDS011;3132;42.622;23.328;2022-09-21T08:01:11;9.20;;;8.70;;
6197;SDS011;3132;42.622;23.328;2022-09-21T08:03:37;9.37;;;8.90;;
6197;SDS011;3132;42.622;23.328;2022-09-21T08:06:02;10.03;;;9.27;;
6197;SDS011;3132;42.622;23.328;2022-09-21T08:08:28;9.70;;;9.00;;
6197;SDS011;3132;42.622;23.328;2022-09-21T08:10:54;8.83;;;8.53;;
6197;SDS011;3132;42.622;23.328;2022-09-21T08:13:21;8.83;;;8.43;;
6197;SDS011;3132;42.622;23.328;2022-09-21T08:15:46;9.40;;;9.00;;
6197;SDS011;3132;42.622;23.328;2022-09-21T08:18:21;9.20;;;8.87;;
6197;SDS011;3132;42.622;23.328;2022-09-21T08:20:51;8.37;;;8.07;;
6197;SDS011;3132;42.622;23.328;2022-09-21T08:23:18;9.27;;;8.87;;
6197;SDS011;3132;42.622;23.328;2022-09-21T08:25:43;8.67;;;8.30;;
6197;SDS011;3132;42.622;23.328;2022-09-21T08:28:09;9.93;;;9.53;;
6197;SDS011;3132;42.622;23.328;2022-09-21T08:30:35;9.07;;;8.77;;
6197;SDS011;3132;42.622;23.328;2022-09-21T08:33:00;9.73;;;9.27;;
6197;SDS011;3132;42.622;23.328;2022-09-21T08:35:26;8.93;;;8.63;;
6197;SDS011;3132;42.622;23.328;2022-09-21T08:37:52;10.00;;;9.60;;
6197;SDS011;3132;42.622;23.328;2022-09-21T08:40:18;9.03;;;8.63;;
6197;SDS011;3132;42.622;23.328;2022-09-21T08:42:48;9.40;;;8.93;;
6197;SDS011;3132;42.622;23.328;2022-09-21T08:45:23;7.97;;;7.63;;
6197;SDS011;3132;42.622;23.328;2022-09-21T08:47:56;9.50;;;9.07;;
6197;SDS011;3132;42.622;23.328;2022-09-21T08:50:33;8.90;;;8.50;;
6197;SDS011;3132;42.622;23.328;2022-09-21T08:53:04;9.77;;;9.37;;
6197;SDS011;3132;42.622;23.328;2022-09-21T08:55:32;9.33;;;8.93;;
6197;SDS011;3132;42.622;23.328;2022-09-21T08:57:58;8.70;;;8.37;;
6197;SDS011;3132;42.622;23.328;2022-09-21T09:00:24;8.23;;;7.93;;
6197;SDS011;3132;42.622;23.328;2022-09-21T09:05:50;8.77;;;8.40;;
6197;SDS011;3132;42.622;23.328;2022-09-21T09:08:46;9.70;;;9.20;;
6197;SDS011;3132;42.622;23.328;2022-09-21T09:18:53;9.67;;;9.27;;
6197;SDS011;3132;42.622;23.328;2022-09-21T09:21:02;8.73;;;8.33;;
6197;SDS011;3132;42.622;23.328;2022-09-21T09:23:36;9.90;;;9.50;;
6197;SDS011;3132;42.622;23.328;2022-09-21T09:26:09;8.50;;;8.20;;
6197;SDS011;3132;42.622;23.328;2022-09-21T09:28:48;9.27;;;8.53;;
6197;SDS011;3132;42.622;23.328;2022-09-21T09:31:24;9.13;;;8.63;;
6197;SDS011;3132;42.622;23.328;2022-09-21T09:33:54;8.63;;;8.23;;
6197;SDS011;3132;42.622;23.328;2022-09-21T09:36:26;9.40;;;9.00;;
6197;SDS011;3132;42.622;23.328;2022-09-21T09:38:57;8.90;;;8.53;;
6197;SDS011;3132;42.622;23.328;2022-09-21T09:49:38;9.23;;;8.83;;
6197;SDS011;3132;42.622;23.328;2022-09-21T09:52:25;9.10;;;8.70;;
6197;SDS011;3132;42.622;23.328;2022-09-21T09:54:51;9.33;;;8.93;;
6197;SDS011;3132;42.622;23.328;2022-09-21T09:57:19;9.00;;;8.60;;
6197;SDS011;3132;42.622;23.328;2022-09-21T09:59:53;8.63;;;8.23;;
6197;SDS011;3132;42.622;23.328;2022-09-21T10:02:24;8.43;;;8.07;;
6197;SDS011;3132;42.622;23.328;2022-09-21T10:04:57;8.80;;;8.40;;
6197;SDS011;3132;42.622;23.328;2022-09-21T10:10:48;8.23;;;7.93;;
6197;SDS011;3132;42.622;23.328;2022-09-21T10:13:24;8.70;;;8.30;;
6197;SDS011;3132;42.622;23.328;2022-09-21T10:15:55;9.37;;;8.97;;
6197;SDS011;3132;42.622;23.328;2022-09-21T10:18:22;8.70;;;8.40;;
6197;SDS011;3132;42.622;23.328;2022-09-21T10:23:18;9.13;;;8.73;;
6197;SDS011;3132;42.622;23.328;2022-09-21T10:25:44;8.30;;;8.00;;
6197;SDS011;3132;42.622;23.328;2022-09-21T10:28:24;9.47;;;9.07;;
6197;SDS011;3132;42.622;23.328;2022-09-21T10:30:55;8.17;;;7.87;;
6197;SDS011;3132;42.622;23.328;2022-09-21T10:33:32;9.00;;;8.43;;
6197;SDS011;3132;42.622;23.328;2022-09-21T10:36:07;9.40;;;8.90;;
6197;SDS011;3132;42.622;23.328;2022-09-21T10:38:49;8.77;;;8.37;;
6197;SDS011;3132;42.622;23.328;2022-09-21T10:41:15;9.20;;;8.87;;
6197;SDS011;3132;42.622;23.328;2022-09-21T10:43:40;8.27;;;7.97;;
6197;SDS011;3132;42.622;23.328;2022-09-21T10:46:08;8.63;;;8.27;;
6197;SDS011;3132;42.622;23.328;2022-09-21T10:48:34;8.20;;;7.90;;
6197;SDS011;3132;42.622;23.328;2022-09-21T10:51:00;8.67;;;8.37;;
6197;SDS011;3132;42.622;23.328;2022-09-21T10:53:28;8.37;;;8.07;;
6197;SDS011;3132;42.622;23.328;2022-09-21T10:55:59;8.07;;;7.67;;
6197;SDS011;3132;42.622;23.328;2022-09-21T10:58:28;8.50;;;8.10;;
6197;SDS011;3132;42.622;23.328;2022-09-21T11:00:55;8.40;;;8.10;;
6197;SDS011;3132;42.622;23.328;2022-09-21T11:09:08;8.50;;;8.10;;
6197;SDS011;3132;42.622;23.328;2022-09-21T11:11:51;8.13;;;7.83;;
6197;SDS011;3132;42.622;23.328;2022-09-21T11:14:36;8.37;;;8.07;;
6197;SDS011;3132;42.622;23.328;2022-09-21T11:17:15;9.13;;;8.70;;
6197;SDS011;3132;42.622;23.328;2022-09-21T11:19:49;8.70;;;8.30;;
6197;SDS011;3132;42.622;23.328;2022-09-21T11:22:23;8.73;;;8.43;;
6197;SDS011;3132;42.622;23.328;2022-09-21T11:27:40;9.73;;;9.23;;
6197;SDS011;3132;42.622;23.328;2022-09-21T11:30:10;8.37;;;8.07;;
6197;SDS011;3132;42.622;23.328;2022-09-21T11:33:25;8.20;;;7.90;;
6197;SDS011;3132;42.622;23.328;2022-09-21T11:41:39;8.77;;;8.40;;
6197;SDS011;3132;42.622;23.328;2022-09-21T11:44:16;9.23;;;8.83;;
6197;SDS011;3132;42.622;23.328;2022-09-21T12:03:36;8.63;;;8.33;;
6197;SDS011;3132;42.622;23.328;2022-09-21T12:06:27;8.87;;;8.33;;
6197;SDS011;3132;42.622;23.328;2022-09-21T12:11:48;9.10;;;8.10;;
6197;SDS011;3132;42.622;23.328;2022-09-21T12:14:23;8.93;;;8.60;;
6197;SDS011;3132;42.622;23.328;2022-09-21T12:17:07;8.70;;;8.27;;
6197;SDS011;3132;42.622;23.328;2022-09-21T12:19:49;8.93;;;8.63;;
6197;SDS011;3132;42.622;23.328;2022-09-21T12:22:34;8.87;;;8.37;;
6197;SDS011;3132;42.622;23.328;2022-09-21T12:25:11;9.03;;;8.73;;
6197;SDS011;3132;42.622;23.328;2022-09-21T12:27:42;9.07;;;8.67;;
6197;SDS011;3132;42.622;23.328;2022-09-21T12:30:24;8.53;;;8.23;;
6197;SDS011;3132;42.622;23.328;2022-09-21T12:32:54;8.83;;;8.43;;
6197;SDS011;3132;42.622;23.328;2022-09-21T12:35:26;8.73;;;8.33;;
6197;SDS011;3132;42.622;23.328;2022-09-21T12:38:03;9.40;;;8.90;;
6197;SDS011;3132;42.622;23.328;2022-09-21T12:40:35;8.53;;;8.23;;
6197;SDS011;3132;42.622;23.328;2022-09-21T12:43:12;8.73;;;8.43;;
6197;SDS011;3132;42.622;23.328;2022-09-21T12:46:00;9.10;;;8.60;;
6197;SDS011;3132;42.622;23.328;2022-09-21T12:53:36;9.73;;;9.33;;
6197;SDS011;3132;42.622;23.328;2022-09-21T12:56:05;10.40;;;9.90;;
6197;SDS011;3132;42.622;23.328;2022-09-21T12:58:56;8.63;;;8.33;;
6197;SDS011;3132;42.622;23.328;2022-09-21T13:01:34;9.50;;;9.10;;
6197;SDS011;3132;42.622;23.328;2022-09-21T13:09:37;9.10;;;8.80;;
6197;SDS011;3132;42.622;23.328;2022-09-21T13:12:12;9.67;;;9.27;;
6197;SDS011;3132;42.622;23.328;2022-09-21T13:14:45;8.87;;;8.37;;
6197;SDS011;3132;42.622;23.328;2022-09-21T13:17:23;8.73;;;8.03;;
6197;SDS011;3132;42.622;23.328;2022-09-21T13:22:57;8.80;;;8.50;;
6197;SDS011;3132;42.622;23.328;2022-09-21T13:25:25;9.07;;;8.67;;
6197;SDS011;3132;42.622;23.328;2022-09-21T13:30:41;9.23;;;8.83;;
6197;SDS011;3132;42.622;23.328;2022-09-21T13:46:59;8.73;;;8.33;;
6197;SDS011;3132;42.622;23.328;2022-09-21T13:49:47;11.40;;;10.77;;
6197;SDS011;3132;42.622;23.328;2022-09-21T14:02:40;10.67;;;10.17;;
6197;SDS011;3132;42.622;23.328;2022-09-21T14:08:04;11.20;;;10.50;;
6197;SDS011;3132;42.622;23.328;2022-09-21T14:10:55;9.70;;;9.17;;
6197;SDS011;3132;42.622;23.328;2022-09-21T14:24:48;9.50;;;9.10;;
6197;SDS011;3132;42.622;23.328;2022-09-21T14:27:21;8.70;;;8.30;;
6197;SDS011;3132;42.622;23.328;2022-09-21T14:32:25;9.30;;;8.70;;
6197;SDS011;3132;42.622;23.328;2022-09-21T14:34:55;10.27;;;9.70;;
6197;SDS011;3132;42.622;23.328;2022-09-21T14:37:39;11.57;;;10.60;;
6197;SDS011;3132;42.622;23.328;2022-09-21T14:40:16;9.83;;;9.33;;
6197;SDS011;3132;42.622;23.328;2022-09-21T14:42:55;10.13;;;9.63;;
6197;SDS011;3132;42.622;23.328;2022-09-21T14:45:33;10.30;;;9.80;;
6197;SDS011;3132;42.622;23.328;2022-09-21T14:51:02;12.03;;;11.30;;
6197;SDS011;3132;42.622;23.328;2022-09-21T15:10:02;8.77;;;8.23;;
6197;SDS011;3132;42.622;23.328;2022-09-21T15:13:13;10.70;;;10.10;;
6197;SDS011;3132;42.622;23.328;2022-09-21T15:18:21;10.53;;;9.93;;
6197;SDS011;3132;42.622;23.328;2022-09-21T15:20:56;10.63;;;10.00;;
6197;SDS011;3132;42.622;23.328;2022-09-21T15:23:28;10.53;;;9.90;;
6197;SDS011;3132;42.622;23.328;2022-09-21T15:26:01;10.47;;;9.93;;
6197;SDS011;3132;42.622;23.328;2022-09-21T15:28:35;10.67;;;9.77;;
6197;SDS011;3132;42.622;23.328;2022-09-21T15:31:06;10.57;;;9.87;;
6197;SDS011;3132;42.622;23.328;2022-09-21T15:33:38;11.33;;;10.63;;
6197;SDS011;3132;42.622;23.328;2022-09-21T15:36:06;9.93;;;9.33;;
6197;SDS011;3132;42.622;23.328;2022-09-21T15:38:34;10.67;;;10.07;;
6197;SDS011;3132;42.622;23.328;2022-09-21T15:41:01;10.13;;;9.63;;
6197;SDS011;3132;42.622;23.328;2022-09-21T15:43:27;10.73;;;10.00;;
6197;SDS011;3132;42.622;23.328;2022-09-21T15:48:25;11.10;;;10.37;;
6197;SDS011;3132;42.622;23.328;2022-09-21T15:51:00;10.00;;;9.23;;
6197;SDS011;3132;42.622;23.328;2022-09-21T15:53:32;11.47;;;10.67;;
6197;SDS011;3132;42.622;23.328;2022-09-21T15:56:04;10.63;;;9.97;;
6197;SDS011;3132;42.622;23.328;2022-09-21T15:58:34;11.00;;;10.40;;
6197;SDS011;3132;42.622;23.328;2022-09-21T16:01:08;10.27;;;9.77;;
6197;SDS011;3132;42.622;23.328;2022-09-21T16:03:36;10.23;;;9.73;;
6197;SDS011;3132;42.622;23.328;2022-09-21T16:06:24;10.57;;;9.90;;
6197;SDS011;3132;42.622;23.328;2022-09-21T16:08:50;9.87;;;9.37;;
6197;SDS011;3132;42.622;23.328;2022-09-21T16:13:41;10.67;;;10.07;;
6197;SDS011;3132;42.622;23.328;2022-09-21T16:16:27;10.43;;;9.73;;
6197;SDS011;3132;42.622;23.328;2022-09-21T16:18:53;9.80;;;9.30;;
6197;SDS011;3132;42.622;23.328;2022-09-21T16:21:26;11.23;;;10.53;;
6197;SDS011;3132;42.622;23.328;2022-09-21T16:23:53;11.37;;;10.47;;
6197;SDS011;3132;42.622;23.328;2022-09-21T16:26:32;12.60;;;11.53;;
6197;SDS011;3132;42.622;23.328;2022-09-21T16:31:47;12.10;;;11.17;;
6197;SDS011;3132;42.622;23.328;2022-09-21T16:36:42;11.07;;;10.43;;
6197;SDS011;3132;42.622;23.328;2022-09-21T16:39:09;12.13;;;11.43;;
6197;SDS011;3132;42.622;23.328;2022-09-21T16:41:36;10.67;;;10.07;;
6197;SDS011;3132;42.622;23.328;2022-09-21T16:44:13;10.90;;;10.30;;
6197;SDS011;3132;42.622;23.328;2022-09-21T16:46:46;10.37;;;9.77;;
6197;SDS011;3132;42.622;23.328;2022-09-21T16:49:14;10.97;;;10.37;;
6197;SDS011;3132;42.622;23.328;2022-09-21T16:51:44;11.03;;;10.43;;
6197;SDS011;3132;42.622;23.328;2022-09-21T16:54:11;10.33;;;9.63;;
6197;SDS011;3132;42.622;23.328;2022-09-21T16:56:37;14.03;;;13.17;;
6197;SDS011;3132;42.622;23.328;2022-09-21T16:59:17;11.20;;;10.50;;
6197;SDS011;3132;42.622;23.328;2022-09-21T17:01:51;10.07;;;9.57;;
6197;SDS011;3132;42.622;23.328;2022-09-21T17:04:18;11.53;;;10.83;;
6197;SDS011;3132;42.622;23.328;2022-09-21T17:06:46;17.60;;;16.30;;
6197;SDS011;3132;42.622;23.328;2022-09-21T17:11:42;17.73;;;16.33;;
6197;SDS011;3132;42.622;23.328;2022-09-21T17:14:10;14.17;;;13.17;;
6197;SDS011;3132;42.622;23.328;2022-09-21T17:16:40;11.33;;;10.40;;
6197;SDS011;3132;42.622;23.328;2022-09-21T17:19:08;12.50;;;11.67;;
6197;SDS011;3132;42.622;23.328;2022-09-21T17:21:34;12.60;;;11.77;;
6197;SDS011;3132;42.622;23.328;2022-09-21T17:23:59;12.40;;;11.47;;
6197;SDS011;3132;42.622;23.328;2022-09-21T17:26:24;12.03;;;11.20;;
6197;SDS011;3132;42.622;23.328;2022-09-21T17:28:50;11.43;;;10.63;;
6197;SDS011;3132;42.622;23.328;2022-09-21T17:31:17;13.90;;;12.77;;
6197;SDS011;3132;42.622;23.328;2022-09-21T17:33:47;13.17;;;12.27;;
6197;SDS011;3132;42.622;23.328;2022-09-21T17:36:14;13.30;;;12.43;;
6197;SDS011;3132;42.622;23.328;2022-09-21T17:38:40;12.53;;;11.63;;
6197;SDS011;3132;42.622;23.328;2022-09-21T17:43:43;12.13;;;11.43;;
6197;SDS011;3132;42.622;23.328;2022-09-21T17:46:29;14.57;;;13.50;;
6197;SDS011;3132;42.622;23.328;2022-09-21T17:49:09;12.33;;;11.53;;
6197;SDS011;3132;42.622;23.328;2022-09-21T17:51:35;12.60;;;11.77;;
6197;SDS011;3132;42.622;23.328;2022-09-21T17:54:19;11.73;;;10.93;;
6197;SDS011;3132;42.622;23.328;2022-09-21T18:01:46;11.77;;;11.07;;
6197;SDS011;3132;42.622;23.328;2022-09-21T18:04:11;10.73;;;9.93;;
6197;SDS011;3132;42.622;23.328;2022-09-21T18:06:37;11.83;;;11.13;;
6197;SDS011;3132;42.622;23.328;2022-09-21T18:09:02;11.00;;;10.30;;
6197;SDS011;3132;42.622;23.328;2022-09-21T18:20:11;12.53;;;11.73;;
6197;SDS011;3132;42.622;23.328;2022-09-21T18:26:20;12.83;;;11.93;;
6197;SDS011;3132;42.622;23.328;2022-09-21T18:28:42;11.90;;;11.10;;
6197;SDS011;3132;42.622;23.328;2022-09-21T18:39:31;14.40;;;13.10;;
6197;SDS011;3132;42.622;23.328;2022-09-21T18:42:15;12.50;;;11.47;;